createdAt,value
2018-09-28T00:00:53.222Z,2.33
2018-09-28T00:03:23.127Z,2.07
2018-09-28T00:05:53.243Z,2.40
2018-09-28T00:08:23.251Z,1.90
2018-09-28T00:10:53.247Z,2.27
2018-09-28T00:13:23.199Z,2.53
2018-09-28T00:15:53.198Z,2.40
2018-09-28T00:18:23.204Z,2.10
2018-09-28T00:20:53.141Z,2.27
2018-09-28T00:23:23.172Z,2.17
2018-09-28T00:25:53.122Z,2.20
2018-09-28T00:28:23.105Z,2.30
2018-09-28T00:30:53.155Z,2.53
2018-09-28T00:33:23.223Z,2.57
2018-09-28T00:35:54.175Z,2.73
2018-09-28T00:38:24.194Z,2.70
2018-09-28T00:40:54.219Z,2.47
2018-09-28T00:43:24.159Z,2.40
2018-09-28T00:45:55.302Z,2.70
2018-09-28T00:48:25.402Z,2.67
2018-09-28T00:50:55.464Z,2.70
2018-09-28T00:53:25.434Z,2.57
2018-09-28T00:55:55.472Z,2.30
2018-09-28T00:58:25.414Z,2.80
2018-09-28T01:00:55.427Z,2.47
2018-09-28T01:03:25.451Z,2.70
2018-09-28T01:05:55.503Z,2.47
2018-09-28T01:08:25.508Z,2.73
2018-09-28T01:10:55.471Z,2.67
2018-09-28T01:13:25.462Z,3.30
2018-09-28T01:15:55.392Z,2.63
2018-09-28T01:18:25.404Z,2.87
2018-09-28T01:20:57.284Z,2.67
2018-09-28T01:23:27.137Z,2.40
2018-09-28T01:25:57.099Z,2.50
2018-09-28T01:28:26.995Z,2.43
2018-09-28T01:30:57.805Z,2.80
2018-09-28T01:33:27.727Z,2.50
2018-09-28T01:35:57.672Z,2.93
2018-09-28T01:38:27.681Z,2.57
2018-09-28T01:40:57.707Z,2.47
2018-09-28T01:43:27.589Z,2.57
2018-09-28T01:45:57.538Z,2.40
2018-09-28T01:48:27.486Z,2.73
2018-09-28T01:50:58.958Z,2.40
2018-09-28T01:53:28.944Z,2.33
2018-09-28T01:55:58.933Z,2.23
2018-09-28T01:58:28.805Z,2.37
2018-09-28T02:01:00.630Z,2.47
2018-09-28T02:03:30.626Z,3.10
2018-09-28T02:06:00.600Z,2.90
2018-09-28T02:08:30.573Z,2.90
2018-09-28T02:11:00.514Z,2.30
2018-09-28T02:13:30.469Z,2.60
2018-09-28T02:16:00.403Z,2.93
2018-09-28T02:18:30.536Z,3.03
2018-09-28T02:21:00.479Z,2.90
2018-09-28T02:23:30.444Z,2.87
2018-09-28T02:26:00.431Z,2.87
2018-09-28T02:28:30.395Z,3.20
2018-09-28T02:31:00.384Z,3.37
2018-09-28T02:33:30.374Z,2.67
2018-09-28T02:36:00.276Z,3.07
2018-09-28T02:38:30.194Z,3.30
2018-09-28T02:41:00.165Z,3.00
2018-09-28T02:43:30.133Z,2.97
2018-09-28T02:46:00.086Z,3.20
2018-09-28T02:48:30.323Z,3.13
2018-09-28T02:51:01.685Z,3.50
2018-09-28T02:53:31.638Z,3.40
2018-09-28T02:56:01.616Z,2.93
2018-09-28T02:58:33.346Z,2.97
2018-09-28T03:01:03.260Z,2.97
2018-09-28T03:03:33.208Z,3.70
2018-09-28T03:06:03.198Z,2.73
2018-09-28T03:08:33.205Z,2.97
2018-09-28T03:11:03.162Z,3.27
2018-09-28T03:13:33.125Z,3.40
2018-09-28T03:16:03.077Z,3.40
2018-09-28T03:18:33.055Z,3.27
2018-09-28T03:21:03.035Z,3.80
2018-09-28T03:23:32.908Z,3.67
2018-09-28T03:26:03.003Z,3.90
2018-09-28T03:28:32.846Z,4.37
2018-09-28T03:31:02.876Z,4.40
2018-09-28T03:33:32.811Z,3.80
2018-09-28T03:36:02.790Z,4.20
2018-09-28T03:38:32.742Z,4.27
2018-09-28T03:41:02.743Z,4.10
2018-09-28T03:43:32.759Z,4.30
2018-09-28T03:46:02.750Z,3.67
2018-09-28T03:48:32.702Z,4.13
2018-09-28T03:51:02.675Z,4.27
2018-09-28T03:53:32.630Z,4.27
2018-09-28T03:56:02.608Z,5.17
2018-09-28T03:58:32.613Z,5.00
2018-09-28T04:01:02.600Z,5.50
2018-09-28T04:03:32.781Z,4.77
2018-09-28T04:06:02.770Z,5.17
2018-09-28T04:08:32.754Z,4.53
2018-09-28T04:11:02.761Z,4.97
2018-09-28T04:13:32.771Z,5.37
2018-09-28T04:16:03.374Z,4.67
2018-09-28T04:18:33.330Z,4.53
2018-09-28T04:21:03.347Z,4.53
2018-09-28T04:23:33.440Z,5.10
2018-09-28T04:26:03.442Z,5.80
2018-09-28T04:28:33.415Z,4.53
2018-09-28T04:31:03.471Z,4.90
2018-09-28T04:33:33.721Z,5.40
2018-09-28T04:36:03.745Z,5.00
2018-09-28T04:38:33.679Z,4.30
2018-09-28T04:41:03.659Z,5.27
2018-09-28T04:43:33.669Z,4.70
2018-09-28T04:46:03.663Z,4.90
2018-09-28T04:48:33.628Z,4.70
2018-09-28T04:51:04.451Z,4.37
2018-09-28T04:53:34.439Z,4.70
2018-09-28T04:56:04.400Z,5.07
2018-09-28T04:58:34.462Z,5.93
2018-09-28T05:01:04.499Z,5.10
2018-09-28T05:03:34.507Z,5.07
2018-09-28T05:06:04.473Z,4.80
2018-09-28T05:08:34.446Z,4.53
2018-09-28T05:11:04.447Z,4.50
2018-09-28T05:13:34.397Z,4.67
2018-09-28T05:16:04.400Z,4.47
2018-09-28T05:18:34.422Z,5.60
2018-09-28T05:21:05.192Z,4.63
2018-09-28T05:23:35.136Z,5.33
2018-09-28T05:26:05.009Z,5.60
2018-09-28T05:28:35.002Z,5.03
2018-09-28T05:31:05.051Z,5.17
2018-09-28T05:33:35.014Z,5.67
2018-09-28T05:36:05.007Z,5.93
2018-09-28T05:38:35.063Z,5.57
2018-09-28T05:41:05.090Z,5.70
2018-09-28T05:43:35.037Z,5.67
2018-09-28T05:46:04.960Z,5.37
2018-09-28T05:48:34.949Z,5.50
2018-09-28T05:51:05.042Z,7.07
2018-09-28T05:53:34.963Z,6.13
2018-09-28T05:56:04.882Z,6.37
2018-09-28T05:58:39.920Z,6.30
2018-09-28T06:01:14.718Z,7.63
2018-09-28T06:03:49.762Z,7.60
2018-09-28T06:06:19.716Z,6.33
2018-09-28T06:08:49.623Z,7.03
2018-09-28T06:11:19.679Z,7.10
2018-09-28T06:13:49.610Z,7.50
2018-09-28T06:16:19.620Z,7.47
2018-09-28T06:18:49.655Z,7.90
2018-09-28T06:21:19.630Z,7.27
2018-09-28T06:23:49.654Z,7.13
2018-09-28T06:26:19.628Z,8.87
2018-09-28T06:28:49.613Z,8.07
2018-09-28T06:31:19.607Z,8.90
2018-09-28T06:33:49.561Z,8.17
2018-09-28T06:36:19.632Z,8.03
2018-09-28T06:38:49.502Z,7.93
2018-09-28T06:41:19.520Z,7.63
2018-09-28T06:43:49.549Z,8.77
2018-09-28T06:46:19.573Z,9.30
2018-09-28T06:48:49.571Z,12.10
2018-09-28T06:51:19.590Z,10.30
2018-09-28T06:53:49.584Z,10.90
2018-09-28T06:56:19.501Z,10.67
2018-09-28T06:58:49.531Z,10.87
2018-09-28T07:01:19.547Z,8.90
2018-09-28T07:03:49.563Z,8.13
2018-09-28T07:06:19.592Z,8.73
2018-09-28T07:08:49.513Z,8.50
2018-09-28T07:11:19.471Z,8.53
2018-09-28T07:13:49.449Z,9.00
2018-09-28T07:16:19.541Z,8.37
2018-09-28T07:18:49.479Z,7.57
2018-09-28T07:21:19.528Z,8.13
2018-09-28T07:23:49.625Z,8.17
2018-09-28T07:26:19.592Z,8.27
2018-09-28T07:28:49.611Z,7.87
2018-09-28T07:31:19.714Z,7.83
2018-09-28T07:33:49.681Z,8.00
2018-09-28T07:36:19.853Z,7.67
2018-09-28T07:38:49.708Z,8.03
2018-09-28T07:41:19.706Z,8.03
2018-09-28T07:43:49.754Z,8.37
2018-09-28T07:46:19.855Z,7.97
2018-09-28T07:48:49.802Z,7.90
2018-09-28T07:51:19.828Z,7.87
2018-09-28T07:53:49.790Z,8.10
2018-09-28T07:56:19.811Z,9.30
2018-09-28T07:58:49.844Z,8.33
2018-09-28T08:01:19.892Z,8.93
2018-09-28T08:03:49.901Z,9.37
2018-09-28T08:06:19.880Z,10.30
2018-09-28T08:08:49.866Z,9.57
2018-09-28T08:11:19.867Z,10.90
2018-09-28T08:13:50.974Z,10.77
2018-09-28T08:16:20.984Z,8.47
2018-09-28T08:18:50.954Z,9.93
2018-09-28T08:21:20.991Z,11.47
2018-09-28T08:23:50.979Z,11.83
2018-09-28T08:26:20.992Z,12.83
2018-09-28T08:28:50.997Z,12.97
2018-09-28T08:31:21.128Z,10.03
2018-09-28T08:33:51.189Z,13.57
2018-09-28T08:36:21.179Z,12.87
2018-09-28T08:38:51.145Z,12.93
2018-09-28T08:41:21.179Z,15.03
2018-09-28T08:43:51.230Z,12.10
2018-09-28T08:46:21.604Z,10.20
2018-09-28T08:48:51.572Z,8.50
2018-09-28T08:51:21.573Z,10.93
2018-09-28T08:53:51.621Z,9.50
2018-09-28T08:56:21.624Z,8.17
2018-09-28T08:58:53.482Z,8.50
2018-09-28T09:01:23.412Z,9.67
2018-09-28T09:03:53.417Z,8.83
2018-09-28T09:06:23.410Z,8.63
2018-09-28T09:08:54.296Z,6.90
2018-09-28T09:11:24.309Z,7.13
2018-09-28T09:13:54.338Z,7.77
2018-09-28T09:16:24.671Z,7.70
2018-09-28T09:18:54.694Z,8.00
2018-09-28T09:21:24.675Z,7.33
2018-09-28T09:23:54.763Z,7.47
2018-09-28T09:26:24.767Z,12.43
2018-09-28T09:28:54.827Z,13.13
2018-09-28T09:31:24.876Z,13.40
2018-09-28T09:33:54.924Z,11.90
2018-09-28T09:36:24.881Z,11.00
2018-09-28T09:38:54.887Z,11.43
2018-09-28T09:41:24.785Z,12.23
2018-09-28T09:43:54.839Z,11.27
2018-09-28T09:46:25.827Z,10.50
2018-09-28T09:48:55.845Z,10.10
2018-09-28T09:51:25.782Z,9.57
2018-09-28T09:53:55.715Z,10.07
2018-09-28T09:56:25.731Z,10.83
2018-09-28T09:58:55.715Z,9.33
2018-09-28T10:01:30.643Z,10.30
2018-09-28T10:04:06.480Z,9.10
2018-09-28T10:06:36.438Z,8.97
2018-09-28T10:09:10.515Z,8.43
2018-09-28T10:11:40.148Z,8.60
2018-09-28T10:14:10.155Z,7.60
2018-09-28T10:16:40.152Z,7.83
2018-09-28T10:19:10.228Z,8.10
2018-09-28T10:21:40.219Z,8.03
2018-09-28T10:24:10.466Z,7.10
2018-09-28T10:26:40.491Z,6.33
2018-09-28T10:29:10.751Z,6.23
2018-09-28T10:31:40.735Z,6.07
2018-09-28T10:34:10.759Z,6.10
2018-09-28T10:36:40.707Z,5.57
2018-09-28T10:39:10.948Z,4.77
2018-09-28T10:41:42.161Z,3.33
2018-09-28T10:44:12.383Z,3.40
2018-09-28T10:46:42.426Z,3.23
2018-09-28T10:49:12.312Z,3.13
2018-09-28T10:51:42.321Z,3.47
2018-09-28T10:54:12.351Z,3.30
2018-09-28T10:56:42.357Z,3.17
2018-09-28T10:59:12.418Z,2.97
2018-09-28T11:01:42.432Z,3.17
2018-09-28T11:04:12.525Z,2.93
2018-09-28T11:06:42.510Z,3.07
2018-09-28T11:09:13.204Z,2.80
2018-09-28T11:11:43.411Z,3.20
2018-09-28T11:14:13.396Z,3.20
2018-09-28T11:16:43.345Z,3.27
2018-09-28T11:19:13.256Z,3.30
2018-09-28T11:21:43.327Z,3.10
2018-09-28T11:24:13.266Z,2.57
2018-09-28T11:26:43.293Z,2.80
2018-09-28T11:29:13.264Z,2.80
2018-09-28T11:31:43.270Z,2.30
2018-09-28T11:34:13.315Z,2.37
2018-09-28T11:36:43.296Z,2.27
2018-09-28T11:39:13.367Z,2.23
2018-09-28T11:41:43.373Z,2.37
2018-09-28T11:44:13.470Z,2.70
2018-09-28T11:46:43.415Z,2.27
2018-09-28T11:49:13.674Z,2.30
2018-09-28T11:51:43.656Z,2.20
2018-09-28T11:54:13.684Z,2.03
2018-09-28T11:56:43.676Z,1.93
2018-09-28T11:59:13.622Z,1.93
2018-09-28T12:01:43.645Z,1.80
2018-09-28T12:04:13.692Z,2.10
2018-09-28T12:06:43.751Z,1.60
2018-09-28T12:09:14.349Z,1.13
2018-09-28T12:11:44.479Z,1.43
2018-09-28T12:14:14.475Z,1.77
2018-09-28T12:16:44.559Z,1.87
2018-09-28T12:19:14.494Z,1.90
2018-09-28T12:21:44.629Z,1.70
2018-09-28T12:24:14.514Z,1.43
2018-09-28T12:26:44.545Z,1.80
2018-09-28T12:29:14.536Z,1.53
2018-09-28T12:31:44.486Z,1.40
2018-09-28T12:34:14.448Z,1.30
2018-09-28T12:36:44.490Z,1.80
2018-09-28T12:39:14.571Z,1.80
2018-09-28T12:41:44.451Z,1.60
2018-09-28T12:44:14.587Z,1.50
2018-09-28T12:46:44.633Z,1.73
2018-09-28T12:49:14.638Z,1.80
2018-09-28T12:51:44.651Z,1.60
2018-09-28T12:54:14.691Z,1.20
2018-09-28T12:56:44.789Z,1.33
2018-09-28T12:59:14.763Z,1.50
2018-09-28T13:01:44.708Z,1.30
2018-09-28T13:04:18.047Z,1.50
2018-09-28T13:06:49.561Z,1.77
2018-09-28T13:09:19.675Z,1.63
2018-09-28T13:11:49.744Z,2.10
2018-09-28T13:14:19.976Z,1.30
2018-09-28T13:16:50.004Z,1.27
2018-09-28T13:19:20.050Z,1.50
2018-09-28T13:21:50.086Z,1.40
2018-09-28T13:24:20.088Z,1.47
2018-09-28T13:26:50.136Z,1.47
2018-09-28T13:29:20.219Z,1.73
2018-09-28T13:31:50.197Z,1.47
2018-09-28T13:34:20.208Z,1.50
2018-09-28T13:36:50.327Z,1.33
2018-09-28T13:39:20.281Z,1.53
2018-09-28T13:41:50.320Z,2.10
2018-09-28T13:44:20.329Z,1.87
2018-09-28T13:46:50.351Z,1.73
2018-09-28T13:49:20.463Z,1.40
2018-09-28T13:51:50.430Z,1.73
2018-09-28T13:54:20.508Z,1.60
2018-09-28T13:56:50.594Z,1.80
2018-09-28T13:59:20.514Z,1.73
2018-09-28T14:01:50.923Z,2.10
2018-09-28T14:04:20.993Z,1.90
2018-09-28T14:06:51.610Z,2.00
2018-09-28T14:09:21.566Z,1.50
2018-09-28T14:11:51.676Z,1.90
2018-09-28T14:14:21.774Z,2.07
2018-09-28T14:16:51.740Z,2.47
2018-09-28T14:19:21.735Z,2.10
2018-09-28T14:21:51.724Z,2.00
2018-09-28T14:24:21.728Z,2.00
2018-09-28T14:26:51.841Z,2.17
2018-09-28T14:29:21.783Z,1.93
2018-09-28T14:31:51.791Z,2.07
2018-09-28T14:34:21.838Z,2.10
2018-09-28T14:36:51.948Z,1.90
2018-09-28T14:39:21.975Z,1.73
2018-09-28T14:41:52.011Z,2.10
2018-09-28T14:44:22.188Z,2.03
2018-09-28T14:46:52.224Z,1.80
2018-09-28T14:49:22.340Z,1.67
2018-09-28T14:51:52.411Z,1.43
2018-09-28T14:54:22.469Z,1.90
2018-09-28T14:56:52.466Z,1.50
2018-09-28T14:59:22.482Z,1.40
2018-09-28T15:01:52.533Z,1.67
2018-09-28T15:04:22.556Z,2.00
2018-09-28T15:06:52.581Z,1.50
2018-09-28T15:09:22.531Z,2.03
2018-09-28T15:11:52.519Z,1.67
2018-09-28T15:14:22.670Z,1.93
2018-09-28T15:16:52.584Z,1.37
2018-09-28T15:19:22.607Z,1.30
2018-09-28T15:21:52.587Z,1.27
2018-09-28T15:24:22.644Z,1.07
2018-09-28T15:26:52.684Z,1.37
2018-09-28T15:29:22.700Z,1.40
2018-09-28T15:31:52.743Z,1.00
2018-09-28T15:34:22.624Z,1.30
2018-09-28T15:36:52.956Z,1.10
2018-09-28T15:39:22.937Z,1.20
2018-09-28T15:41:53.215Z,0.93
2018-09-28T15:44:23.132Z,1.20
2018-09-28T15:46:53.009Z,1.10
2018-09-28T15:49:22.997Z,1.50
2018-09-28T15:51:53.048Z,1.00
2018-09-28T15:54:23.046Z,1.13
2018-09-28T15:56:53.148Z,1.57
2018-09-28T15:59:23.256Z,0.93
2018-09-28T16:01:53.257Z,1.03
2018-09-28T16:04:23.228Z,1.00
2018-09-28T16:06:53.439Z,0.90
2018-09-28T16:09:23.396Z,1.07
2018-09-28T16:11:53.417Z,1.00
2018-09-28T16:14:23.399Z,1.00
2018-09-28T16:16:53.441Z,1.37
2018-09-28T16:19:23.454Z,1.30
2018-09-28T16:21:53.515Z,0.93
2018-09-28T16:24:23.621Z,0.90
2018-09-28T16:26:53.668Z,1.00
2018-09-28T16:29:23.684Z,0.70
2018-09-28T16:31:55.610Z,0.90
2018-09-28T16:34:25.664Z,1.10
2018-09-28T16:36:55.669Z,1.10
2018-09-28T16:39:25.666Z,0.90
2018-09-28T16:41:55.746Z,0.83
2018-09-28T16:44:25.740Z,1.30
2018-09-28T16:46:55.800Z,1.10
2018-09-28T16:49:25.724Z,1.10
2018-09-28T16:51:55.659Z,1.20
2018-09-28T16:54:25.712Z,1.00
2018-09-28T16:56:55.890Z,1.07
2018-09-28T16:59:25.921Z,0.80
2018-09-28T17:01:55.896Z,1.13
2018-09-28T17:04:25.955Z,1.40
2018-09-28T17:06:56.010Z,1.00
2018-09-28T17:09:26.077Z,1.00
2018-09-28T17:11:56.106Z,1.03
2018-09-28T17:14:26.172Z,1.40
2018-09-28T17:16:56.142Z,1.30
2018-09-28T17:19:26.165Z,1.10
2018-09-28T17:21:56.164Z,1.00
2018-09-28T17:24:26.185Z,1.07
2018-09-28T17:26:56.223Z,1.30
2018-09-28T17:29:26.280Z,1.30
2018-09-28T17:31:56.265Z,0.83
2018-09-28T17:34:26.226Z,0.90
2018-09-28T17:36:56.187Z,1.10
2018-09-28T17:39:26.214Z,1.10
2018-09-28T17:41:56.173Z,1.00
2018-09-28T17:44:26.275Z,1.13
2018-09-28T17:46:56.339Z,1.30
2018-09-28T17:49:26.421Z,1.10
2018-09-28T17:51:56.444Z,1.00
2018-09-28T17:54:26.435Z,0.87
2018-09-28T17:56:56.502Z,1.00
2018-09-28T17:59:26.483Z,1.00
2018-09-28T18:01:56.518Z,1.07
2018-09-28T18:04:26.505Z,0.83
2018-09-28T18:06:56.551Z,0.90
2018-09-28T18:09:26.535Z,1.00
2018-09-28T18:11:56.543Z,1.03
2018-09-28T18:14:26.519Z,0.90
2018-09-28T18:16:56.537Z,0.73
2018-09-28T18:19:26.492Z,0.63
2018-09-28T18:21:56.513Z,0.90
2018-09-28T18:24:26.501Z,0.90
2018-09-28T18:26:56.537Z,0.90
2018-09-28T18:29:26.573Z,1.00
2018-09-28T18:31:56.626Z,0.80
2018-09-28T18:34:26.627Z,1.10
2018-09-28T18:36:56.706Z,1.03
2018-09-28T18:39:26.750Z,0.93
2018-09-28T18:41:56.801Z,1.03
2018-09-28T18:44:26.820Z,1.43
2018-09-28T18:46:56.846Z,1.90
2018-09-28T18:49:26.883Z,2.77
2018-09-28T18:51:56.847Z,3.80
2018-09-28T18:54:26.779Z,2.70
2018-09-28T18:56:56.813Z,2.60
2018-09-28T18:59:26.818Z,2.00
2018-09-28T19:01:56.827Z,1.60
2018-09-28T19:04:26.795Z,1.60
2018-09-28T19:06:56.884Z,1.40
2018-09-28T19:09:27.018Z,1.23
2018-09-28T19:11:57.068Z,1.27
2018-09-28T19:14:27.042Z,1.07
2018-09-28T19:16:57.816Z,1.17
2018-09-28T19:19:27.882Z,0.77
2018-09-28T19:21:57.920Z,1.20
2018-09-28T19:24:27.991Z,1.40
2018-09-28T19:26:58.090Z,1.10
2018-09-28T19:29:28.256Z,0.97
2018-09-28T19:31:58.330Z,1.00
2018-09-28T19:34:28.376Z,1.37
2018-09-28T19:36:58.422Z,1.10
2018-09-28T19:39:28.441Z,1.10
2018-09-28T19:41:58.448Z,1.03
2018-09-28T19:44:28.530Z,1.30
2018-09-28T19:46:58.624Z,1.10
2018-09-28T19:49:28.743Z,0.90
2018-09-28T19:51:58.871Z,0.80
2018-09-28T19:54:29.347Z,1.13
2018-09-28T19:56:59.679Z,0.87
2018-09-28T19:59:29.729Z,1.07
2018-09-28T20:01:59.757Z,1.17
2018-09-28T20:04:29.842Z,1.10
2018-09-28T20:06:59.879Z,1.10
2018-09-28T20:09:29.919Z,1.40
2018-09-28T20:11:59.906Z,1.20
2018-09-28T20:14:29.915Z,1.07
2018-09-28T20:16:59.967Z,0.97
2018-09-28T20:19:29.980Z,1.30
2018-09-28T20:22:00.026Z,1.10
2018-09-28T20:24:29.954Z,1.27
2018-09-28T20:26:59.919Z,1.13
2018-09-28T20:29:29.882Z,1.30
2018-09-28T20:32:00.391Z,0.90
2018-09-28T20:34:30.455Z,1.17
2018-09-28T20:37:00.398Z,1.30
2018-09-28T20:39:30.381Z,1.03
2018-09-28T20:42:00.482Z,1.20
2018-09-28T20:44:30.510Z,1.30
2018-09-28T20:47:00.544Z,1.00
2018-09-28T20:49:30.555Z,0.97
2018-09-28T20:52:00.589Z,0.80
2018-09-28T20:54:30.618Z,0.90
2018-09-28T20:57:00.614Z,0.90
2018-09-28T20:59:30.619Z,1.20
2018-09-28T21:02:00.674Z,1.20
2018-09-28T21:04:30.743Z,1.30
2018-09-28T21:07:00.764Z,1.20
2018-09-28T21:09:30.823Z,0.80
2018-09-28T21:12:00.808Z,1.13
2018-09-28T21:14:30.890Z,0.97
2018-09-28T21:17:00.979Z,0.87
2018-09-28T21:19:31.043Z,1.20
2018-09-28T21:22:01.106Z,1.20
2018-09-28T21:24:31.179Z,0.90
2018-09-28T21:27:01.183Z,1.00
2018-09-28T21:29:31.194Z,1.40
2018-09-28T21:32:01.237Z,0.80
2018-09-28T21:34:31.288Z,1.40
2018-09-28T21:37:01.324Z,1.20
2018-09-28T21:39:31.352Z,1.30
2018-09-28T21:42:01.394Z,0.90
2018-09-28T21:44:31.619Z,1.27
2018-09-28T21:47:01.699Z,1.50
2018-09-28T21:49:31.678Z,1.07
2018-09-28T21:52:01.719Z,1.10
2018-09-28T21:54:31.681Z,1.40
2018-09-28T21:57:01.730Z,1.17
2018-09-28T21:59:31.754Z,1.17
2018-09-28T22:02:01.735Z,1.57
2018-09-28T22:04:31.728Z,0.83
2018-09-28T22:07:01.744Z,1.00
2018-09-28T22:09:31.755Z,1.30
2018-09-28T22:12:01.720Z,1.00
2018-09-28T22:14:31.739Z,1.13
2018-09-28T22:17:01.831Z,1.40
2018-09-28T22:19:31.870Z,0.97
2018-09-28T22:22:01.854Z,1.00
2018-09-28T22:24:31.828Z,1.20
2018-09-28T22:27:01.883Z,1.20
2018-09-28T22:29:31.924Z,1.20
2018-09-28T22:32:01.964Z,1.20
2018-09-28T22:34:31.955Z,0.97
2018-09-28T22:37:02.012Z,1.50
2018-09-28T22:39:32.006Z,1.00
2018-09-28T22:42:02.040Z,1.43
2018-09-28T22:44:31.969Z,0.93
2018-09-28T22:47:02.206Z,1.40
2018-09-28T22:49:32.374Z,1.20
2018-09-28T22:52:02.400Z,1.00
2018-09-28T22:54:32.411Z,1.00
2018-09-28T22:57:02.398Z,1.67
2018-09-28T22:59:32.377Z,1.00
2018-09-28T23:02:02.448Z,1.20
2018-09-28T23:04:32.463Z,1.17
2018-09-28T23:07:02.529Z,1.13
2018-09-28T23:09:33.147Z,0.90
2018-09-28T23:12:03.101Z,0.87
2018-09-28T23:14:33.044Z,1.13
2018-09-28T23:17:03.019Z,1.20
2018-09-28T23:19:33.014Z,0.97
2018-09-28T23:22:03.017Z,1.17
2018-09-28T23:24:33.099Z,0.93
2018-09-28T23:27:03.074Z,1.03
2018-09-28T23:29:33.031Z,1.03
2018-09-28T23:32:02.994Z,1.13
2018-09-28T23:34:33.011Z,1.20
2018-09-28T23:37:03.023Z,1.00
2018-09-28T23:39:33.025Z,1.03
2018-09-28T23:42:03.044Z,1.00
2018-09-28T23:44:33.033Z,0.80
2018-09-28T23:47:03.028Z,1.20
2018-09-28T23:49:32.999Z,0.80
2018-09-28T23:52:03.006Z,1.07
2018-09-28T23:54:33.015Z,0.80
2018-09-28T23:57:03.077Z,0.73
2018-09-28T23:59:33.130Z,1.37
